Time;durP1;ratioP1;P1;durP2;ratioP2;P2;SDS_P1;SDS_P2;PMS_P1;PMS_P2;Temp;Humidity;BMP_temperature;BMP_pressure;BME280_temperature;BME280_humidity;BME280_pressure;Samples;Min_cycle;Max_cycle;Signal;HPM_P1;HPM_P2
2022/04/13 00:00:02;;;;;;;9.88;4.10;;;;;;;16.38;52.25;101036.72;4755120;30;20424;-86
2022/04/13 00:02:27;;;;;;;7.43;3.80;;;;;;;16.32;52.65;101036.16;4743932;30;20093;-86
2022/04/13 00:04:52;;;;;;;8.20;4.18;;;;;;;16.30;51.98;101040.69;4758344;30;20039;-86
2022/04/13 00:07:18;;;;;;;10.10;4.47;;;;;;;16.26;52.65;101038.31;4756172;30;20040;-86
2022/04/13 00:09:43;;;;;;;12.05;4.15;;;;;;;16.16;52.20;101027.34;4757197;30;20090;-85
2022/04/13 00:12:09;;;;;;;8.68;4.75;;;;;;;16.12;52.87;101025.81;4746422;30;20047;-86
2022/04/13 00:14:34;;;;;;;9.10;4.75;;;;;;;16.10;52.89;101027.72;4746677;30;20027;-87
2022/04/13 00:17:00;;;;;;;5.40;4.15;;;;;;;16.13;53.78;101034.66;4744698;30;20028;-87
2022/04/13 00:19:26;;;;;;;9.45;4.55;;;;;;;16.04;53.02;101025.41;4758391;30;20043;-86
2022/04/13 00:21:51;;;;;;;10.60;4.55;;;;;;;15.99;54.18;101035.50;4757834;30;20045;-87
2022/04/13 00:24:17;;;;;;;8.38;4.18;;;;;;;15.89;53.98;101043.19;4744091;30;20027;-87
2022/04/13 00:26:42;;;;;;;9.68;4.38;;;;;;;15.79;54.21;101034.88;4745509;30;20052;-87
2022/04/13 00:29:07;;;;;;;11.95;4.90;;;;;;;15.84;53.69;101036.41;4744636;30;20028;-86
2022/04/13 00:31:33;;;;;;;11.73;4.82;;;;;;;15.81;54.36;101056.97;4743783;30;20035;-86
2022/04/13 00:33:58;;;;;;;13.95;4.50;;;;;;;15.74;54.38;101060.06;4743106;30;20118;-87
2022/04/13 00:36:23;;;;;;;9.85;4.57;;;;;;;15.62;55.11;101050.97;4761892;30;20040;-87
2022/04/13 00:38:49;;;;;;;12.50;5.53;;;;;;;15.57;55.35;101043.25;4755227;30;20032;-88
2022/04/13 00:41:14;;;;;;;10.73;4.90;;;;;;;15.49;55.78;101045.47;4754308;30;20044;-87
2022/04/13 00:43:40;;;;;;;9.13;4.60;;;;;;;15.53;55.30;101054.16;4743681;30;20040;-86
2022/04/13 00:46:05;;;;;;;7.35;4.93;;;;;;;15.41;55.20;101049.53;4756451;30;20089;-86
2022/04/13 00:48:34;;;;;;;10.65;4.80;;;;;;;15.40;55.29;101066.47;4744153;30;20030;-86
2022/04/13 00:51:00;;;;;;;9.98;5.00;;;;;;;15.24;55.64;101061.13;4740714;30;20055;-87
2022/04/13 00:53:26;;;;;;;12.25;4.95;;;;;;;15.21;55.96;101066.63;4738257;30;20525;-86
2022/04/13 00:55:57;;;;;;;8.63;4.60;;;;;;;15.14;56.37;101067.91;4742447;30;20104;-86
2022/04/13 00:58:27;;;;;;;9.43;5.13;;;;;;;15.05;57.37;101071.94;4757070;30;20039;-87
2022/04/13 01:00:53;;;;;;;10.20;5.15;;;;;;;15.03;56.53;101077.34;4742701;30;20483;-87
2022/04/13 01:03:21;;;;;;;10.52;4.72;;;;;;;15.01;56.65;101086.34;4757221;30;20031;-89
2022/04/13 01:05:48;;;;;;;13.38;4.88;;;;;;;15.01;57.31;101087.25;4758517;30;20420;-86
2022/04/13 01:08:15;;;;;;;10.27;5.40;;;;;;;14.98;57.38;101087.41;4755372;30;20074;-87
2022/04/13 01:10:42;;;;;;;8.68;4.72;;;;;;;14.97;57.44;101096.34;4741919;30;20425;-87
2022/04/13 01:13:08;;;;;;;9.38;4.95;;;;;;;14.99;57.91;101098.91;4743929;30;20036;-87
2022/04/13 01:15:34;;;;;;;7.95;4.72;;;;;;;14.99;57.59;101098.91;4760780;30;20047;-86
2022/04/13 01:17:59;;;;;;;12.15;4.80;;;;;;;14.90;57.56;101102.94;4743473;30;20047;-88
2022/04/13 01:20:25;;;;;;;14.07;4.30;;;;;;;14.90;57.03;101112.72;4755413;30;20044;-87
2022/04/13 01:22:51;;;;;;;12.82;4.80;;;;;;;14.80;57.51;101096.38;4758368;30;20531;-86
2022/04/13 01:25:16;;;;;;;8.40;4.45;;;;;;;14.78;57.59;101106.22;4741952;30;20393;-87
2022/04/13 01:27:41;;;;;;;7.78;4.57;;;;;;;14.76;57.86;101100.16;4743365;30;20032;-86
2022/04/13 02:19:04;;;;;;;12.20;6.20;;;;;;;14.78;58.83;101170.13;4736763;30;20051;-87
2022/04/13 02:21:32;;;;;;;14.18;7.30;;;;;;;14.66;60.83;101173.44;4718669;30;20040;-87
2022/04/13 02:23:58;;;;;;;14.32;6.78;;;;;;;14.50;61.81;101162.69;4719738;30;20044;-87
2022/04/13 02:26:24;;;;;;;15.20;7.70;;;;;;;14.42;61.86;101176.38;4724248;30;20377;-88
2022/04/13 02:28:51;;;;;;;15.48;7.00;;;;;;;14.37;62.51;101166.91;4720904;30;20033;-88
2022/04/13 02:31:17;;;;;;;12.07;6.63;;;;;;;14.39;61.72;101184.50;4721588;30;20174;-87
2022/04/13 02:33:42;;;;;;;12.82;6.78;;;;;;;14.38;61.63;101171.28;4716629;30;20032;-87
2022/04/13 02:36:08;;;;;;;12.65;7.57;;;;;;;14.38;62.87;101176.63;4720637;30;20032;-87
2022/04/13 02:38:33;;;;;;;13.90;7.80;;;;;;;14.27;63.62;101183.34;4722855;30;20037;-87
2022/04/13 02:40:59;;;;;;;16.05;7.35;;;;;;;14.16;63.44;101169.69;4719750;30;20037;-87
2022/04/13 02:43:25;;;;;;;14.43;6.90;;;;;;;14.21;62.53;101177.44;4721656;30;20048;-87
2022/04/13 02:45:50;;;;;;;14.68;7.95;;;;;;;14.27;63.28;101191.31;4723680;30;20119;-87
2022/04/13 02:48:16;;;;;;;9.75;7.40;;;;;;;14.25;63.92;101181.69;4721873;30;20542;-88
2022/04/13 02:50:41;;;;;;;15.75;7.25;;;;;;;14.18;62.62;101177.63;4719469;30;20045;-88
2022/04/13 02:53:07;;;;;;;13.45;7.53;;;;;;;14.17;63.23;101195.34;4720231;30;20036;-86
2022/04/13 02:55:32;;;;;;;14.25;7.47;;;;;;;14.04;65.29;101188.94;4723454;30;20037;-87
2022/04/13 02:57:57;;;;;;;16.63;7.45;;;;;;;14.10;64.84;101188.63;4722249;30;20037;-87
2022/04/13 03:00:23;;;;;;;12.68;7.85;;;;;;;14.02;65.02;101194.31;4720852;30;21021;-88
2022/04/13 03:02:48;;;;;;;13.82;7.22;;;;;;;13.97;65.43;101198.13;4717734;30;20127;-88
2022/04/13 03:05:13;;;;;;;10.63;7.43;;;;;;;13.97;63.90;101195.47;4720322;30;20173;-89
2022/04/13 03:07:39;;;;;;;13.73;7.95;;;;;;;13.87;63.92;101192.41;4716463;30;20083;-87
2022/04/13 03:10:05;;;;;;;20.05;8.32;;;;;;;13.82;65.05;101185.59;4723077;30;20751;-88
2022/04/13 03:12:33;;;;;;;17.05;8.05;;;;;;;13.88;65.13;101209.22;4720170;30;20036;-87
2022/04/13 03:14:59;;;;;;;14.82;7.93;;;;;;;13.67;65.79;101198.69;4721742;30;20116;-88
2022/04/13 03:17:24;;;;;;;11.73;8.30;;;;;;;13.63;66.35;101193.59;4724359;30;20127;-87
2022/04/13 03:19:49;;;;;;;12.45;8.32;;;;;;;13.53;65.78;101196.66;4737727;30;20492;-87
2022/04/13 03:22:15;;;;;;;17.50;8.60;;;;;;;13.45;66.56;101209.44;4753279;30;20119;-88
2022/04/13 03:24:40;;;;;;;15.32;8.40;;;;;;;13.26;67.15;101196.16;4741577;30;20035;-87
2022/04/13 03:27:05;;;;;;;14.40;8.73;;;;;;;13.11;67.24;101174.72;4742752;30;20036;-88
2022/04/13 03:29:31;;;;;;;14.57;7.93;;;;;;;13.15;67.41;101192.19;4757902;30;20036;-87
2022/04/13 03:31:56;;;;;;;12.88;8.25;;;;;;;13.15;67.63;101193.09;4754641;30;20089;-87
2022/04/13 03:34:21;;;;;;;12.55;7.80;;;;;;;13.12;67.37;101185.25;4743805;30;20074;-87
2022/04/13 03:36:48;;;;;;;15.20;8.45;;;;;;;13.13;67.32;101194.94;4740812;30;20451;-87
2022/04/13 03:39:13;;;;;;;16.88;8.32;;;;;;;13.09;67.65;101182.72;4757728;30;20040;-88
2022/04/13 03:41:38;;;;;;;13.43;7.97;;;;;;;13.09;66.83;101195.16;4755040;30;20032;-87
2022/04/13 03:44:04;;;;;;;15.57;8.07;;;;;;;13.04;67.30;101200.66;4759442;30;20032;-88
2022/04/13 03:46:30;;;;;;;13.63;8.68;;;;;;;12.95;68.22;101203.72;4760894;30;20424;-88
2022/04/13 03:48:56;;;;;;;15.38;8.52;;;;;;;12.86;68.17;101204.97;4746413;30;20032;-88
2022/04/13 03:51:21;;;;;;;15.23;9.02;;;;;;;12.73;68.61;101199.38;4759823;30;20032;-88
2022/04/13 03:53:47;;;;;;;19.83;9.55;;;;;;;12.76;68.57;101207.19;4757328;30;20044;-87
2022/04/13 03:56:12;;;;;;;11.75;8.35;;;;;;;12.65;68.12;101193.53;4761485;30;20039;-88
2022/04/13 03:58:40;;;;;;;14.60;8.63;;;;;;;12.77;67.83;101218.66;4747713;30;20043;-87
2022/04/13 04:01:06;;;;;;;13.75;8.80;;;;;;;12.61;68.53;101204.34;4744628;30;20450;-88
2022/04/13 04:03:31;;;;;;;11.93;7.75;;;;;;;12.65;68.92;101213.88;4744319;30;20036;-88
2022/04/13 04:05:57;;;;;;;11.40;8.07;;;;;;;12.60;69.32;101207.91;4744877;30;20626;-88
2022/04/13 04:08:23;;;;;;;15.35;8.45;;;;;;;12.70;69.38;101215.41;4761653;30;20058;-87
2022/04/13 04:10:49;;;;;;;13.05;8.38;;;;;;;12.69;69.58;101220.78;4759703;30;20102;-88
2022/04/13 04:13:14;;;;;;;14.82;9.10;;;;;;;12.54;69.17;101216.97;4760498;30;20040;-88
2022/04/13 04:15:40;;;;;;;18.48;9.23;;;;;;;12.45;69.64;101227.97;4744258;30;20042;-88
2022/04/13 04:18:06;;;;;;;19.25;9.63;;;;;;;12.39;69.78;101228.22;4747889;30;20089;-87
2022/04/13 04:20:31;;;;;;;16.30;10.65;;;;;;;12.33;70.48;101245.25;4758661;30;20139;-88
2022/04/13 04:22:56;;;;;;;18.15;10.48;;;;;;;12.12;70.81;101231.06;4742957;30;20495;-87
2022/04/13 04:25:22;;;;;;;18.20;8.90;;;;;;;12.15;70.43;101240.72;4745282;30;20457;-87
2022/04/13 04:27:47;;;;;;;14.07;9.18;;;;;;;12.08;70.68;101244.53;4757921;30;20051;-87
2022/04/13 04:30:12;;;;;;;17.98;9.00;;;;;;;12.07;70.88;101250.75;4761851;30;20024;-87
2022/04/13 04:32:38;;;;;;;15.95;9.00;;;;;;;11.99;70.62;101236.03;4758285;30;20040;-87
2022/04/13 04:35:05;;;;;;;11.50;8.75;;;;;;;11.86;71.28;101249.81;4756483;30;20036;-87
2022/04/13 04:37:31;;;;;;;18.92;9.00;;;;;;;11.89;71.18;101254.97;4744411;30;20526;-87
2022/04/13 04:39:56;;;;;;;17.13;9.18;;;;;;;11.91;70.81;101245.19;4745992;30;20035;-88
2022/04/13 04:42:21;;;;;;;15.27;8.82;;;;;;;11.94;70.68;101245.09;4743974;30;20085;-87
2022/04/13 04:44:46;;;;;;;18.17;8.88;;;;;;;11.90;70.69;101259.38;4743117;30;20039;-88
2022/04/13 04:47:12;;;;;;;13.85;8.60;;;;;;;11.92;70.78;101270.75;4759931;30;20532;-88
2022/04/13 04:49:37;;;;;;;14.00;9.48;;;;;;;11.95;70.75;101282.13;4745038;30;20123;-87
2022/04/13 04:52:03;;;;;;;10.63;8.48;;;;;;;11.88;70.70;101274.44;4745411;30;20206;-87
2022/04/13 04:54:28;;;;;;;17.33;8.57;;;;;;;11.86;70.33;101268.38;4757024;30;20043;-87
2022/04/13 04:56:53;;;;;;;17.10;8.60;;;;;;;11.92;70.23;101278.72;4763309;30;20051;-87
2022/04/13 04:59:19;;;;;;;13.25;8.38;;;;;;;11.87;70.58;101281.53;4759661;30;20392;-88
2022/04/13 05:01:44;;;;;;;17.45;8.75;;;;;;;11.86;71.58;101286.91;4759214;30;20569;-87
2022/04/13 05:04:09;;;;;;;13.68;8.63;;;;;;;11.82;71.53;101288.81;4757966;30;20039;-86
2022/04/13 05:06:35;;;;;;;11.68;7.82;;;;;;;11.84;71.26;101286.94;4758550;30;20268;-87
2022/04/13 05:09:00;;;;;;;14.48;8.32;;;;;;;11.97;70.10;101298.81;4741247;30;21006;-87
2022/04/13 05:11:25;;;;;;;9.80;7.55;;;;;;;11.95;70.95;101295.38;4742902;30;20553;-87
2022/04/13 05:13:51;;;;;;;13.32;7.85;;;;;;;11.85;70.98;101293.13;4744117;30;20050;-87
2022/04/13 05:16:18;;;;;;;13.70;8.57;;;;;;;11.94;70.78;101306.91;4761927;30;20023;-87
2022/04/13 05:18:45;;;;;;;18.15;9.00;;;;;;;11.98;71.42;101307.63;4760693;30;20078;-87
2022/04/13 05:21:11;;;;;;;14.93;8.35;;;;;;;12.08;71.45;101306.34;4744098;30;20061;-87
2022/04/13 05:23:37;;;;;;;15.45;9.70;;;;;;;12.20;71.29;101315.59;4757040;30;20523;-87
2022/04/13 05:26:03;;;;;;;14.52;9.07;;;;;;;12.29;70.66;101314.38;4761311;30;20031;-88
2022/04/13 05:28:29;;;;;;;16.23;9.00;;;;;;;12.33;70.88;101316.00;4760432;30;20050;-87
2022/04/13 05:30:55;;;;;;;15.27;8.95;;;;;;;12.28;71.29;101313.53;4757079;30;20024;-87
2022/04/13 05:33:20;;;;;;;17.73;10.00;;;;;;;12.29;71.55;101317.03;4744005;30;20036;-88
2022/04/13 05:35:46;;;;;;;15.40;9.13;;;;;;;12.39;71.77;101313.09;4743983;30;20050;-86
2022/04/13 05:38:11;;;;;;;14.98;8.43;;;;;;;12.49;71.64;101309.13;4742539;30;20658;-87
2022/04/13 05:40:36;;;;;;;20.88;9.73;;;;;;;12.69;71.23;101318.94;4761346;30;20496;-88
2022/04/13 05:43:02;;;;;;;14.07;9.23;;;;;;;12.82;71.28;101324.59;4758121;30;20100;-87
2022/04/13 05:45:27;;;;;;;16.80;9.57;;;;;;;12.98;70.88;101334.50;4742434;30;20122;-87
2022/04/13 05:47:53;;;;;;;13.18;9.18;;;;;;;13.09;70.50;101341.16;4742451;30;20047;-87
2022/04/13 05:50:18;;;;;;;19.27;11.15;;;;;;;13.19;69.33;101327.41;4760026;30;20071;-87
2022/04/13 05:52:44;;;;;;;14.57;10.27;;;;;;;13.34;69.30;101341.88;4742704;30;20318;-87
2022/04/13 05:55:10;;;;;;;21.05;12.95;;;;;;;13.48;69.29;101335.94;4758187;30;20374;-87
2022/04/13 05:57:36;;;;;;;24.05;12.85;;;;;;;13.48;70.20;101338.59;4742327;30;20508;-86
2022/04/13 06:00:03;;;;;;;24.73;13.50;;;;;;;13.58;70.58;101344.38;4760692;30;20038;-88
2022/04/13 06:02:29;;;;;;;21.88;12.90;;;;;;;13.67;70.07;101349.28;4739175;30;20714;-86
2022/04/13 06:04:54;;;;;;;23.48;14.68;;;;;;;13.76;69.95;101348.84;4758234;30;20036;-86
2022/04/13 06:07:19;;;;;;;29.33;16.15;;;;;;;13.82;69.42;101353.03;4740904;30;20111;-88
2022/04/13 06:09:45;;;;;;;26.65;16.73;;;;;;;13.89;69.61;101351.78;4743963;30;20046;-87
2022/04/13 06:12:10;;;;;;;23.00;15.93;;;;;;;13.91;68.59;101353.47;4755036;30;20066;-86
2022/04/13 06:14:36;;;;;;;23.30;16.80;;;;;;;14.04;68.45;101365.25;4757643;30;20032;-87
2022/04/13 06:17:01;;;;;;;29.52;16.83;;;;;;;14.10;68.52;101369.44;4742808;30;20642;-87
2022/04/13 06:19:26;;;;;;;28.10;17.30;;;;;;;14.17;68.41;101365.53;4756869;30;20060;-87
2022/04/13 06:21:52;;;;;;;26.73;18.80;;;;;;;14.12;69.18;101367.56;4753246;30;20146;-88
2022/04/13 06:24:17;;;;;;;35.10;19.15;;;;;;;14.17;69.18;101370.84;4751279;30;20241;-88
2022/04/13 06:26:42;;;;;;;31.02;18.50;;;;;;;14.30;68.23;101374.66;4739272;30;20039;-87
2022/04/13 06:29:08;;;;;;;25.90;17.45;;;;;;;14.43;67.57;101380.28;4742321;30;20516;-87
2022/04/13 06:31:34;;;;;;;27.80;18.35;;;;;;;14.53;67.12;101388.72;4756668;30;20055;-87
2022/04/13 06:33:59;;;;;;;31.27;17.77;;;;;;;14.58;67.74;101389.34;4754827;30;20032;-87
2022/04/13 06:36:24;;;;;;;29.52;18.38;;;;;;;14.44;67.09;101373.16;4741846;30;20067;-87
2022/04/13 06:38:51;;;;;;;27.13;17.92;;;;;;;14.51;67.75;101377.28;4743929;30;20391;-87
2022/04/13 06:41:16;;;;;;;31.83;17.10;;;;;;;14.56;67.63;101380.59;4759404;30;20042;-86
2022/04/13 06:43:42;;;;;;;25.67;18.00;;;;;;;14.58;67.00;101386.69;4757729;30;20039;-86
2022/04/13 06:46:08;;;;;;;30.02;17.70;;;;;;;14.62;67.20;101384.75;4742145;30;20074;-87
2022/04/13 06:48:34;;;;;;;29.40;18.33;;;;;;;14.65;67.40;101392.59;4760148;30;20107;-86
2022/04/13 06:51:00;;;;;;;23.75;16.27;;;;;;;14.76;67.51;101396.44;4758179;30;20119;-86
2022/04/13 06:53:26;;;;;;;29.13;17.63;;;;;;;14.84;66.53;101400.56;4756293;30;20046;-87
2022/04/13 06:55:51;;;;;;;34.08;18.95;;;;;;;14.85;67.01;101412.91;4761039;30;20020;-86
2022/04/13 06:58:18;;;;;;;28.38;18.30;;;;;;;14.95;67.27;101411.53;4742204;30;20055;-88
2022/04/13 07:00:44;;;;;;;32.17;18.17;;;;;;;15.00;67.15;101429.00;4744239;30;20142;-88
2022/04/13 07:03:10;;;;;;;32.70;20.13;;;;;;;15.04;66.31;101422.59;4737347;30;20115;-87
2022/04/13 07:05:37;;;;;;;33.08;18.80;;;;;;;15.17;66.94;101438.81;4740799;30;20127;-86
2022/04/13 07:08:03;;;;;;;35.33;19.30;;;;;;;15.09;66.74;101422.34;4738001;30;20071;-86
2022/04/13 07:10:30;;;;;;;30.98;19.13;;;;;;;15.26;66.04;101442.84;4742837;30;20027;-87
2022/04/13 07:12:56;;;;;;;28.80;18.90;;;;;;;15.42;66.27;101442.91;4728814;30;20119;-87
2022/04/13 07:15:22;;;;;;;31.38;18.73;;;;;;;15.50;65.48;101435.41;4760545;30;20039;-88
2022/04/13 07:17:48;;;;;;;29.30;18.02;;;;;;;15.50;65.18;101446.91;4738829;30;20039;-87
2022/04/13 07:20:13;;;;;;;26.38;17.42;;;;;;;15.46;65.30;101449.81;4758531;30;20186;-87
2022/04/13 07:22:47;;;;;;;28.80;18.38;;;;;;;15.51;65.62;101461.09;4756007;30;20043;-87
2022/04/13 07:25:13;;;;;;;28.00;18.33;;;;;;;15.42;65.16;101451.75;4751616;30;20039;-87
2022/04/13 07:27:38;;;;;;;27.50;18.25;;;;;;;15.41;65.11;101468.69;4757407;30;20464;-86
2022/04/13 07:30:04;;;;;;;31.50;19.30;;;;;;;15.41;65.91;101473.16;4738444;30;20039;-87
2022/04/13 07:32:30;;;;;;;31.67;19.35;;;;;;;15.39;65.64;101485.69;4740198;30;20036;-87
2022/04/13 07:34:59;;;;;;;26.30;19.05;;;;;;;15.44;65.62;101476.53;4743022;30;20048;-87
2022/04/13 07:37:27;;;;;;;29.88;19.63;;;;;;;15.56;65.15;101481.25;4739167;30;20045;-88
2022/04/13 07:39:53;;;;;;;28.30;18.50;;;;;;;15.56;65.01;101485.72;4759461;30;20546;-86
2022/04/13 07:42:26;;;;;;;33.33;19.80;;;;;;;15.75;64.75;101483.84;4737086;30;20067;-87
2022/04/13 07:44:52;;;;;;;28.00;19.60;;;;;;;15.80;64.43;101468.47;4737894;30;20555;-87
2022/04/13 07:47:20;;;;;;;31.80;20.00;;;;;;;16.01;64.12;101487.00;4754617;30;20110;-87
2022/04/13 07:49:46;;;;;;;29.13;20.17;;;;;;;16.22;63.38;101471.63;4757774;30;21550;-86
2022/04/13 07:52:12;;;;;;;32.15;20.10;;;;;;;16.30;63.68;101462.28;4754695;30;20029;-86
2022/04/13 07:54:37;;;;;;;33.95;20.33;;;;;;;16.41;63.09;101472.38;4755332;30;20054;-87
2022/04/13 07:57:03;;;;;;;31.10;20.35;;;;;;;16.58;62.73;101485.66;4739722;30;20024;-87
2022/04/13 07:59:29;;;;;;;25.80;19.85;;;;;;;16.79;62.34;101483.66;4741086;30;20047;-87
2022/04/13 08:01:54;;;;;;;28.15;19.08;;;;;;;16.81;61.15;101462.19;4739312;30;20445;-86
2022/04/13 08:04:20;;;;;;;30.52;18.90;;;;;;;17.24;60.71;101492.66;4741855;30;20949;-87
2022/04/13 08:06:45;;;;;;;26.35;19.17;;;;;;;17.14;60.23;101487.94;4757610;30;20100;-87
2022/04/13 08:09:11;;;;;;;29.20;18.80;;;;;;;17.33;59.99;101478.75;4756014;30;20066;-87
2022/04/13 08:11:36;;;;;;;27.58;17.27;;;;;;;17.67;59.36;101499.97;4741668;30;20027;-87
2022/04/13 08:14:01;;;;;;;24.48;17.27;;;;;;;17.90;58.83;101499.50;4738578;30;20108;-87
2022/04/13 08:16:27;;;;;;;29.05;19.02;;;;;;;18.33;57.74;101495.06;4739136;30;20035;-88
2022/04/13 08:18:52;;;;;;;19.63;14.38;;;;;;;18.64;56.25;101495.81;4746916;30;20025;-87
2022/04/13 08:21:17;;;;;;;24.30;14.98;;;;;;;18.59;56.31;101495.25;4742095;30;20060;-88
2022/04/13 08:23:43;;;;;;;24.38;15.65;;;;;;;18.66;56.64;101495.72;4740746;30;20422;-87
2022/04/13 08:26:08;;;;;;;18.70;12.98;;;;;;;18.71;56.35;101501.69;4740024;30;20184;-87
2022/04/13 08:28:33;;;;;;;17.33;12.50;;;;;;;18.76;55.28;101510.28;4757285;30;20035;-88
2022/04/13 08:30:58;;;;;;;19.15;12.70;;;;;;;18.82;55.28;101513.41;4757627;30;20107;-87
2022/04/13 08:33:24;;;;;;;22.45;12.70;;;;;;;18.85;54.87;101518.59;4753771;30;20161;-87
2022/04/13 08:35:50;;;;;;;20.23;12.73;;;;;;;18.77;55.56;101512.00;4761718;30;20091;-87
2022/04/13 08:38:15;;;;;;;17.77;11.95;;;;;;;18.61;54.83;101494.19;4759667;30;20437;-86
2022/04/13 08:40:55;;;;;;;21.15;12.60;;;;;;;18.84;55.59;101524.91;4761423;30;20459;-88
2022/04/13 08:43:48;;;;;;;19.00;12.50;;;;;;;18.84;55.21;101514.19;4754240;30;20123;-87
2022/04/13 08:46:27;;;;;;;21.65;13.65;;;;;;;19.05;55.33;101516.44;4732688;30;20071;-87
2022/04/13 08:48:56;;;;;;;23.85;13.85;;;;;;;19.07;54.25;101520.75;4757799;30;20100;-87
2022/04/13 08:51:23;;;;;;;21.48;12.93;;;;;;;19.10;54.31;101533.94;4760189;30;20035;-86
2022/04/13 08:53:55;;;;;;;19.52;13.75;;;;;;;19.22;54.07;101537.66;4758170;30;20043;-85
2022/04/13 08:56:21;;;;;;;19.65;13.20;;;;;;;19.46;53.44;101545.91;4760869;30;20027;-86
2022/04/13 08:59:04;;;;;;;21.30;13.45;;;;;;;19.50;53.49;101534.00;4743433;30;20067;-87
2022/04/13 09:01:36;;;;;;;21.08;13.70;;;;;;;19.84;52.42;101543.34;4758404;30;20107;-87
2022/04/13 09:04:07;;;;;;;20.55;13.13;;;;;;;20.18;51.61;101554.47;4758048;30;20122;-86
2022/04/13 09:06:33;;;;;;;19.60;13.30;;;;;;;20.31;51.46;101547.28;4759891;30;20075;-88
2022/04/13 09:09:01;;;;;;;19.95;14.18;;;;;;;19.84;52.56;101537.13;4758530;30;20035;-86
2022/04/13 09:11:28;;;;;;;21.23;13.98;;;;;;;19.52;53.14;101547.31;4742573;30;20119;-86
2022/04/13 09:13:53;;;;;;;23.42;14.65;;;;;;;19.64;53.87;101545.69;4757511;30;20081;-86
2022/04/13 09:16:19;;;;;;;22.33;15.32;;;;;;;19.40;52.89;101542.75;4759887;30;20027;-86
2022/04/13 09:18:46;;;;;;;20.52;14.15;;;;;;;19.64;52.86;101534.94;4756931;30;20036;-87
2022/04/13 09:21:17;;;;;;;22.42;14.68;;;;;;;19.85;52.73;101553.13;4758437;30;20052;-87
2022/04/13 09:23:43;;;;;;;19.83;14.20;;;;;;;19.82;52.74;101547.97;4743637;30;20050;-86
2022/04/13 09:26:10;;;;;;;19.77;15.02;;;;;;;19.83;52.59;101557.75;4761527;30;20023;-86
2022/04/13 09:28:37;;;;;;;27.27;14.35;;;;;;;19.67;53.36;101554.34;4743774;30;20507;-86
2022/04/13 09:31:02;;;;;;;18.40;15.02;;;;;;;19.66;53.61;101552.63;4757503;30;20039;-86
2022/04/13 09:33:28;;;;;;;23.15;16.25;;;;;;;19.89;53.01;101572.56;4743499;30;20046;-87
2022/04/13 09:35:53;;;;;;;20.77;15.13;;;;;;;19.56;53.44;101573.81;4759759;30;20034;-87
2022/04/13 09:38:19;;;;;;;22.13;15.55;;;;;;;19.37;54.47;101579.53;4755811;30;20042;-86
2022/04/13 09:40:45;;;;;;;18.52;13.93;;;;;;;18.79;54.93;101579.72;4741938;30;20047;-87
2022/04/13 09:43:12;;;;;;;21.60;14.20;;;;;;;18.65;55.64;101564.47;4736983;30;20040;-85
2022/04/13 09:45:42;;;;;;;21.48;15.15;;;;;;;18.46;56.53;101580.81;4756255;30;20476;-86
2022/04/13 09:48:18;;;;;;;21.90;15.05;;;;;;;18.41;56.70;101574.03;4742684;30;20028;-87
2022/04/13 09:50:47;;;;;;;20.60;14.57;;;;;;;18.55;56.21;101577.59;4760001;30;20115;-86
2022/04/13 09:53:15;;;;;;;20.40;14.35;;;;;;;18.61;56.42;101590.63;4741225;30;20088;-86
2022/04/13 09:55:45;;;;;;;19.60;14.70;;;;;;;18.71;56.50;101587.41;4759259;30;20034;-86
2022/04/13 09:58:17;;;;;;;18.98;14.60;;;;;;;18.68;56.67;101595.59;4761376;30;20035;-86
2022/04/13 10:00:43;;;;;;;20.50;14.25;;;;;;;18.48;56.22;101591.47;4740582;30;20493;-86
2022/04/13 10:03:12;;;;;;;23.95;15.60;;;;;;;18.32;57.58;101589.69;4741138;30;20035;-88
2022/04/13 10:05:40;;;;;;;22.05;14.63;;;;;;;18.17;57.75;101587.09;4756450;30;20075;-86
2022/04/13 10:08:08;;;;;;;17.48;13.90;;;;;;;18.27;57.72;101594.47;4739460;30;20035;-86
2022/04/13 10:10:34;;;;;;;25.45;13.07;;;;;;;18.24;57.43;101583.97;4739565;30;20045;-86
2022/04/13 10:12:59;;;;;;;19.17;13.35;;;;;;;18.25;57.28;101599.06;4741605;30;20046;-85
2022/04/13 10:15:26;;;;;;;20.42;14.43;;;;;;;18.10;57.41;101587.47;4756288;30;20080;-86
2022/04/13 10:17:58;;;;;;;23.50;14.75;;;;;;;18.16;57.43;101590.72;4756419;30;20043;-87
2022/04/13 10:20:27;;;;;;;22.00;15.02;;;;;;;18.10;57.80;101583.94;4740262;30;20480;-88
2022/04/13 10:23:00;;;;;;;19.98;13.18;;;;;;;18.02;57.69;101583.53;4752422;30;20055;-85
2022/04/13 10:25:27;;;;;;;18.20;14.02;;;;;;;18.12;58.25;101589.19;4757237;30;20110;-85
2022/04/13 10:28:00;;;;;;;19.17;13.70;;;;;;;18.19;58.22;101590.56;4738809;30;20042;-87
2022/04/13 10:30:33;;;;;;;16.45;13.38;;;;;;;18.22;57.56;101591.22;4740727;30;20059;-87
2022/04/13 10:33:10;;;;;;;19.85;13.52;;;;;;;18.12;58.21;101600.75;4740262;30;20031;-85
2022/04/13 10:35:38;;;;;;;17.23;13.45;;;;;;;18.07;58.08;101602.84;4741804;30;20118;-85
2022/04/13 10:38:03;;;;;;;22.45;15.25;;;;;;;18.08;58.40;101594.72;4755584;30;20041;-85
2022/04/13 10:40:34;;;;;;;21.90;14.68;;;;;;;18.15;58.26;101600.59;4760100;30;20044;-86
2022/04/13 10:43:02;;;;;;;20.35;14.35;;;;;;;18.13;58.73;101599.78;4738936;30;20071;-86
2022/04/13 10:45:29;;;;;;;18.30;13.82;;;;;;;18.14;59.21;101606.91;4756338;30;20036;-86
2022/04/13 10:48:11;;;;;;;17.83;14.40;;;;;;;18.19;58.17;101611.97;4750199;30;20036;-86
2022/04/13 10:50:45;;;;;;;;;;;;;;;18.35;57.28;101615.44;4741728;30;20040;-85
2022/04/13 10:53:29;;;;;;;17.48;13.70;;;;;;;18.22;58.21;101606.41;4756786;30;19917;-86
2022/04/13 10:56:01;;;;;;;19.75;14.82;;;;;;;18.16;58.93;101607.66;4758600;30;20046;-87
2022/04/13 10:58:44;;;;;;;20.27;15.93;;;;;;;18.22;59.65;101617.13;4756287;30;20673;-86
2022/04/13 11:01:13;;;;;;;25.40;16.15;;;;;;;18.14;58.87;101614.94;4740719;30;20411;-85
2022/04/13 11:03:39;;;;;;;23.95;16.73;;;;;;;18.07;58.93;101619.75;4737845;30;20039;-85
2022/04/13 11:06:06;;;;;;;23.38;15.98;;;;;;;17.94;60.43;101629.44;4749980;30;20613;-86
2022/04/13 11:08:46;;;;;;;20.48;16.85;;;;;;;17.82;60.17;101623.03;4737308;30;20043;-87
2022/04/13 11:11:17;;;;;;;22.92;16.65;;;;;;;17.89;61.03;101628.88;4757626;30;20096;-85
2022/04/13 11:13:45;;;;;;;25.95;17.58;;;;;;;17.92;60.05;101627.84;4754718;30;20049;-85
2022/04/13 11:16:23;;;;;;;24.35;16.67;;;;;;;17.98;59.39;101639.03;4739071;30;20119;-85
2022/04/13 11:19:00;;;;;;;22.02;17.05;;;;;;;17.99;59.74;101642.56;4738583;30;20103;-86
2022/04/13 11:21:26;;;;;;;24.33;17.25;;;;;;;17.94;59.93;101631.28;4754033;30;20416;-86
2022/04/13 11:23:53;;;;;;;25.52;16.80;;;;;;;17.93;59.94;101627.75;4743598;30;20036;-85
2022/04/13 11:26:27;;;;;;;26.10;16.50;;;;;;;17.96;59.49;101634.75;4741647;30;20447;-87
2022/04/13 11:29:15;;;;;;;22.85;16.23;;;;;;;18.03;59.10;101636.09;4756563;30;20047;-87
2022/04/13 11:32:05;;;;;;;28.13;18.08;;;;;;;17.99;59.78;101632.72;4740951;30;20043;-86
2022/04/13 11:34:35;;;;;;;22.05;17.65;;;;;;;17.98;59.90;101638.16;4753892;30;20039;-85
2022/04/13 11:37:03;;;;;;;25.40;18.45;;;;;;;17.92;59.98;101641.22;4754004;30;20044;-86
2022/04/13 11:39:51;;;;;;;27.80;20.08;;;;;;;17.98;60.32;101643.53;4738716;30;20492;-86
2022/04/13 11:42:26;;;;;;;25.83;19.42;;;;;;;17.92;60.24;101647.41;4738577;30;20491;-86
2022/04/13 11:45:03;;;;;;;28.92;19.85;;;;;;;17.93;60.15;101648.28;4752608;30;20036;-86
2022/04/13 11:48:03;;;;;;;29.17;20.63;;;;;;;17.98;59.49;101655.09;4750304;30;20120;-86
2022/04/13 11:50:36;;;;;;;28.40;20.20;;;;;;;17.92;59.92;101642.06;4740526;30;20167;-86
2022/04/13 11:53:14;;;;;;;27.40;20.55;;;;;;;17.93;60.46;101648.28;4753371;30;20032;-88
2022/04/13 11:55:39;;;;;;;27.67;20.45;;;;;;;18.01;61.46;101659.41;4753592;30;20028;-86
2022/04/13 11:58:04;;;;;;;27.83;20.70;;;;;;;18.01;60.81;101670.13;4758590;30;20046;-86
2022/04/13 12:00:37;;;;;;;27.38;21.88;;;;;;;17.98;61.18;101663.09;4740347;30;20042;-86
2022/04/13 12:03:06;;;;;;;29.17;21.50;;;;;;;17.81;61.25;101660.53;4755038;30;20036;-86